Time;durP1;ratioP1;P1;durP2;ratioP2;P2;SDS_P1;SDS_P2;PMS_P1;PMS_P2;Temp;Humidity;BMP_temperature;BMP_pressure;BME280_temperature;BME280_humidity;BME280_pressure;Samples;Min_cycle;Max_cycle;Signal;HPM_P1;HPM_P2
2021/07/07 00:02:10;;;;;;;6.00;2.88;;;;;;;18.92;77.56;99563.88;5051656;28;20099;-82
2021/07/07 00:04:35;;;;;;;7.15;2.83;;;;;;;19.02;77.20;99561.78;5051750;28;20017;-83
2021/07/07 00:07:00;;;;;;;10.85;3.25;;;;;;;18.98;76.71;99563.16;5051373;28;20052;-82
2021/07/07 00:09:26;;;;;;;8.30;2.95;;;;;;;19.00;76.70;99569.09;5051345;28;20426;-82
2021/07/07 00:11:51;;;;;;;9.48;3.20;;;;;;;18.94;76.84;99575.16;5034098;28;20021;-82
2021/07/07 00:14:16;;;;;;;9.48;3.20;;;;;;;18.96;77.30;99583.78;5051355;28;20120;-82
2021/07/07 00:16:42;;;;;;;7.82;2.88;;;;;;;19.12;76.21;99584.66;5051252;28;20386;-82
2021/07/07 00:19:08;;;;;;;7.80;3.05;;;;;;;19.09;76.25;99579.69;5051452;28;20039;-83
2021/07/07 00:21:33;;;;;;;6.90;3.50;;;;;;;18.94;77.57;99585.78;5051201;28;20540;-83
2021/07/07 00:23:58;;;;;;;6.05;2.72;;;;;;;19.14;76.59;99586.13;5051077;28;20405;-83
2021/07/07 00:26:23;;;;;;;6.93;3.00;;;;;;;19.19;76.27;99588.22;5035825;28;20476;-83
2021/07/07 00:28:49;;;;;;;9.90;3.50;;;;;;;19.05;77.21;99589.03;5031332;28;20384;-82
2021/07/07 00:31:14;;;;;;;10.00;3.42;;;;;;;19.18;76.52;99581.28;5031192;28;20022;-82
2021/07/07 00:33:40;;;;;;;7.25;3.25;;;;;;;19.26;75.83;99583.03;5036529;28;20021;-83
2021/07/07 00:36:05;;;;;;;9.98;3.13;;;;;;;19.27;75.72;99582.00;5049687;28;20024;-82
2021/07/07 00:38:30;;;;;;;4.07;2.80;;;;;;;19.11;76.01;99581.16;5051007;28;20063;-83
2021/07/07 00:40:57;;;;;;;6.88;2.97;;;;;;;19.24;75.70;99580.53;5051169;28;20021;-83
2021/07/07 00:43:23;;;;;;;10.18;3.90;;;;;;;19.33;75.57;99584.78;5050989;28;20483;-82
2021/07/07 00:45:48;;;;;;;7.50;3.50;;;;;;;19.40;75.47;99585.69;5038674;28;20091;-82
2021/07/07 00:48:13;;;;;;;7.63;3.10;;;;;;;19.42;74.81;99578.34;5031180;28;20475;-83
2021/07/07 00:50:41;;;;;;;6.90;3.65;;;;;;;19.40;75.53;99583.03;5031319;28;20387;-83
2021/07/07 00:53:06;;;;;;;9.48;3.72;;;;;;;19.45;75.25;99584.31;5029514;28;20438;-83
2021/07/07 00:55:32;;;;;;;5.97;3.28;;;;;;;19.55;74.94;99587.53;5031096;28;20087;-83
2021/07/07 00:57:59;;;;;;;7.88;3.35;;;;;;;19.41;75.17;99584.72;5033366;28;20053;-83
2021/07/07 01:00:25;;;;;;;6.97;2.95;;;;;;;19.34;75.11;99574.97;5045072;28;20037;-83
2021/07/07 01:02:52;;;;;;;8.43;3.55;;;;;;;19.31;76.07;99578.81;5042341;28;20029;-83
2021/07/07 01:05:18;;;;;;;6.97;3.70;;;;;;;19.31;75.40;99576.16;5054423;28;20056;-83
2021/07/07 01:07:43;;;;;;;7.80;3.05;;;;;;;19.34;75.57;99580.28;5054519;28;20017;-83
2021/07/07 01:10:11;;;;;;;7.82;3.75;;;;;;;19.33;76.01;99579.47;5054689;28;20021;-83
2021/07/07 01:12:37;;;;;;;6.85;3.42;;;;;;;19.34;76.20;99577.63;5054446;28;20483;-83
2021/07/07 01:15:06;;;;;;;12.90;4.22;;;;;;;19.38;75.88;99570.94;5054551;28;20032;-82
2021/07/07 01:17:32;;;;;;;11.90;4.00;;;;;;;19.24;76.39;99577.06;5049823;28;20025;-83
2021/07/07 01:20:07;;;;;;;10.05;3.92;;;;;;;19.38;76.18;99579.72;5034318;28;20032;-83
2021/07/07 01:22:33;;;;;;;8.35;3.55;;;;;;;19.24;76.60;99564.56;5034517;28;20177;-83
2021/07/07 01:24:58;;;;;;;9.25;3.72;;;;;;;19.32;75.20;99577.81;5034188;28;20060;-83
2021/07/07 01:27:25;;;;;;;10.20;3.45;;;;;;;19.34;75.58;99580.28;5034483;28;20030;-82
2021/07/07 01:29:52;;;;;;;7.63;3.72;;;;;;;19.29;76.61;99575.50;5034252;28;20025;-83
2021/07/07 01:32:18;;;;;;;9.65;4.00;;;;;;;19.45;75.68;99577.19;5038927;28;20033;-83
2021/07/07 01:34:43;;;;;;;12.73;3.90;;;;;;;19.49;75.37;99577.63;5053952;28;20033;-83
2021/07/07 01:37:09;;;;;;;7.93;3.38;;;;;;;19.51;75.40;99581.78;5054038;28;20029;-83
2021/07/07 01:39:34;;;;;;;13.25;3.90;;;;;;;19.46;75.29;99584.16;5054030;28;20025;-83
2021/07/07 01:41:59;;;;;;;12.52;4.00;;;;;;;19.53;75.29;99586.91;5054008;28;20114;-83
2021/07/07 01:44:25;;;;;;;7.53;3.60;;;;;;;19.46;76.06;99589.47;5054331;28;20498;-83
2021/07/07 01:46:50;;;;;;;8.73;3.67;;;;;;;19.37;76.19;99591.41;5050124;28;20025;-83
2021/07/07 01:49:16;;;;;;;6.30;3.40;;;;;;;19.55;75.13;99584.88;5033683;28;20022;-83
2021/07/07 01:51:41;;;;;;;11.23;3.50;;;;;;;19.57;75.08;99590.88;5033745;28;20040;-83
2021/07/07 01:54:06;;;;;;;8.73;3.45;;;;;;;19.60;75.45;99587.84;5033904;28;20062;-83
2021/07/07 01:56:32;;;;;;;8.63;2.90;;;;;;;19.67;74.80;99598.56;5033756;28;20021;-83
2021/07/07 01:58:58;;;;;;;4.65;2.88;;;;;;;19.51;75.70;99591.59;5033862;28;20049;-82
2021/07/07 02:01:24;;;;;;;5.95;2.80;;;;;;;19.55;75.75;99592.88;5035081;28;20122;-83
2021/07/07 02:03:49;;;;;;;9.48;3.15;;;;;;;19.56;75.49;99589.22;5047668;28;20044;-83
2021/07/07 02:06:14;;;;;;;5.85;2.90;;;;;;;19.50;75.96;99597.94;5033785;28;20026;-83
2021/07/07 02:08:41;;;;;;;5.05;2.97;;;;;;;19.58;75.73;99596.00;5033075;28;20025;-83
2021/07/07 02:11:06;;;;;;;4.90;2.67;;;;;;;19.55;75.58;99590.22;5033511;28;20498;-83
2021/07/07 02:13:31;;;;;;;5.78;2.58;;;;;;;19.59;75.30;99599.50;5033434;28;20037;-83
2021/07/07 02:15:57;;;;;;;3.97;3.03;;;;;;;19.55;75.20;99598.19;5033439;28;20021;-83
2021/07/07 02:18:22;;;;;;;4.13;3.00;;;;;;;19.66;75.46;99592.44;5036282;28;20024;-83
2021/07/07 02:20:48;;;;;;;5.65;3.00;;;;;;;19.72;75.32;99599.72;5053044;28;20094;-83
2021/07/07 02:23:14;;;;;;;8.93;4.00;;;;;;;19.70;75.30;99598.22;5053316;28;20096;-80
2021/07/07 02:25:45;;;;;;;8.32;3.35;;;;;;;19.67;74.35;99590.59;5053194;28;20025;-83
2021/07/07 02:28:15;;;;;;;6.60;3.30;;;;;;;19.73;75.47;99600.56;5053022;28;20542;-83
2021/07/07 02:30:43;;;;;;;7.75;3.33;;;;;;;19.75;74.92;99601.19;5052842;28;20091;-83
2021/07/07 02:33:09;;;;;;;9.43;3.20;;;;;;;19.62;75.12;99599.94;5048770;28;20017;-83
2021/07/07 02:35:37;;;;;;;7.47;4.00;;;;;;;19.77;75.08;99591.19;5032994;28;20030;-83
2021/07/07 02:38:05;;;;;;;7.05;3.10;;;;;;;19.74;74.64;99603.00;5034125;28;20018;-83
2021/07/07 02:40:34;;;;;;;8.38;3.90;;;;;;;19.71;74.93;99602.56;5032801;28;20116;-83
2021/07/07 02:43:00;;;;;;;6.82;3.30;;;;;;;19.75;74.49;99599.34;5032850;28;20037;-83
2021/07/07 02:45:27;;;;;;;5.15;3.55;;;;;;;19.68;74.88;99593.06;5032681;28;20079;-83
2021/07/07 02:47:52;;;;;;;7.47;3.80;;;;;;;19.62;75.15;99599.94;5032770;28;20048;-83
2021/07/07 02:50:19;;;;;;;8.23;3.70;;;;;;;19.62;74.97;99609.78;5032739;28;20025;-83
2021/07/07 02:52:46;;;;;;;10.13;4.80;;;;;;;19.67;74.64;99601.22;5032707;28;20025;-83
2021/07/07 02:55:15;;;;;;;9.45;4.28;;;;;;;19.63;74.63;99598.13;5032573;28;20032;-83
2021/07/07 03:00:45;;;;;;;7.05;4.00;;;;;;;19.88;73.83;99608.53;5032516;28;20030;-83
2021/07/07 03:03:17;;;;;;;10.63;4.93;;;;;;;19.74;73.95;99603.00;5031960;28;20069;-80
2021/07/07 03:05:45;;;;;;;10.60;4.57;;;;;;;19.78;73.96;99604.31;5032481;28;20037;-80
2021/07/07 03:08:12;;;;;;;10.02;4.15;;;;;;;19.70;74.60;99606.22;5039896;28;20060;-80
2021/07/07 03:10:39;;;;;;;10.40;4.55;;;;;;;19.53;74.66;99608.19;5040301;28;20049;-80
2021/07/07 03:13:04;;;;;;;7.05;3.67;;;;;;;19.58;75.50;99613.81;5032349;28;20108;-80
2021/07/07 03:15:32;;;;;;;10.35;4.07;;;;;;;19.68;74.25;99606.38;5032331;28;20155;-80
2021/07/07 03:17:57;;;;;;;8.65;4.00;;;;;;;19.75;74.34;99618.00;5033015;28;20021;-80
2021/07/07 03:20:23;;;;;;;11.05;3.92;;;;;;;19.89;73.33;99612.88;5031362;28;20075;-80
2021/07/07 03:22:49;;;;;;;9.85;4.60;;;;;;;19.86;73.51;99630.03;5031996;28;20033;-83
2021/07/07 03:25:14;;;;;;;9.32;4.00;;;;;;;19.76;74.20;99629.47;5042449;28;20033;-80
2021/07/07 03:27:40;;;;;;;5.13;3.25;;;;;;;19.72;74.04;99631.66;5051996;28;20032;-83
2021/07/07 03:30:06;;;;;;;6.80;3.78;;;;;;;19.70;74.07;99638.16;5051980;28;20029;-83
2021/07/07 03:32:32;;;;;;;6.28;3.70;;;;;;;19.71;74.59;99639.84;5051776;28;20482;-83
2021/07/07 03:34:58;;;;;;;11.38;3.88;;;;;;;19.81;73.54;99641.25;5051870;28;20025;-83
2021/07/07 03:37:24;;;;;;;7.88;3.70;;;;;;;19.66;74.66;99648.34;5051805;28;20154;-83
2021/07/07 03:39:49;;;;;;;8.63;3.88;;;;;;;19.80;73.58;99649.41;5042377;28;20032;-83
2021/07/07 03:42:16;;;;;;;6.38;3.65;;;;;;;19.89;73.43;99653.66;5031796;28;20026;-83
2021/07/07 03:44:41;;;;;;;6.28;3.40;;;;;;;19.87;74.08;99654.84;5031874;28;20108;-83
2021/07/07 03:47:07;;;;;;;5.43;3.45;;;;;;;19.81;73.92;99656.41;5031732;28;20101;-83
2021/07/07 03:49:32;;;;;;;8.82;3.50;;;;;;;19.83;74.12;99665.03;5031834;28;20029;-83
2021/07/07 03:51:58;;;;;;;7.50;3.45;;;;;;;19.82;73.30;99655.38;5031586;28;20495;-83
2021/07/07 03:54:24;;;;;;;8.55;3.10;;;;;;;19.69;74.34;99663.97;5032687;28;20443;-83
2021/07/07 03:56:55;;;;;;;7.47;3.53;;;;;;;19.73;74.33;99665.31;5031844;28;20021;-83
2021/07/07 03:59:21;;;;;;;5.40;3.05;;;;;;;19.92;73.59;99663.09;5046972;28;20029;-83
2021/07/07 04:01:47;;;;;;;7.93;3.33;;;;;;;19.85;73.61;99672.84;5051569;28;20507;-83
2021/07/07 04:04:13;;;;;;;9.38;3.35;;;;;;;19.80;74.01;99671.53;5051539;28;20117;-83
2021/07/07 04:06:39;;;;;;;5.32;2.97;;;;;;;19.80;73.77;99670.72;5051451;28;20017;-82
2021/07/07 04:09:04;;;;;;;7.70;3.30;;;;;;;19.63;74.46;99678.03;5051449;28;20048;-82
2021/07/07 04:11:30;;;;;;;4.72;2.95;;;;;;;19.64;75.01;99677.00;5051609;28;20029;-83
2021/07/07 04:13:55;;;;;;;9.45;3.40;;;;;;;19.52;75.18;99673.94;5048090;28;20041;-81
2021/07/07 04:16:20;;;;;;;5.13;3.13;;;;;;;19.55;75.58;99680.75;5033673;28;20033;-80
2021/07/07 04:18:45;;;;;;;7.28;3.38;;;;;;;19.50;75.70;99683.94;5031338;28;20033;-82
2021/07/07 04:21:11;;;;;;;7.90;3.35;;;;;;;19.35;76.43;99678.59;5031440;28;20021;-83
2021/07/07 04:23:36;;;;;;;5.45;3.45;;;;;;;19.42;76.41;99687.50;5031442;28;20064;-82
2021/07/07 04:26:02;;;;;;;8.32;3.25;;;;;;;19.57;75.32;99684.06;5031575;28;20471;-82
2021/07/07 04:28:27;;;;;;;5.82;2.75;;;;;;;19.54;75.81;99687.09;5031332;28;20167;-83
2021/07/07 04:30:52;;;;;;;9.45;3.13;;;;;;;19.36;76.87;99692.72;5047323;28;20033;-83
2021/07/07 04:33:18;;;;;;;6.65;3.03;;;;;;;19.58;75.08;99697.19;5055171;28;20112;-82
2021/07/07 04:35:43;;;;;;;8.45;3.35;;;;;;;19.59;75.63;99696.19;5055219;28;20064;-83
2021/07/07 04:38:08;;;;;;;5.85;3.33;;;;;;;19.57;75.48;99698.22;5055224;28;20067;-83
2021/07/07 04:40:34;;;;;;;7.80;3.83;;;;;;;19.54;75.77;99703.06;5055128;28;20021;-83
2021/07/07 04:42:59;;;;;;;4.35;3.40;;;;;;;19.51;76.24;99703.41;5054987;28;20021;-82
2021/07/07 04:45:24;;;;;;;7.38;3.85;;;;;;;19.57;75.83;99698.22;5040972;28;20084;-83
2021/07/07 04:47:50;;;;;;;5.60;3.22;;;;;;;19.62;75.46;99701.13;5035107;28;20599;-82
2021/07/07 04:50:18;;;;;;;4.93;3.22;;;;;;;19.64;74.70;99706.28;5034948;28;20479;-83
2021/07/07 04:52:43;;;;;;;7.05;3.65;;;;;;;19.62;74.91;99709.13;5034700;28;20029;-82
2021/07/07 04:55:11;;;;;;;6.75;3.35;;;;;;;19.60;75.34;99707.66;5035195;28;20033;-83
2021/07/07 04:57:42;;;;;;;7.32;3.90;;;;;;;19.70;75.04;99716.22;5034844;28;20400;-83
2021/07/07 05:00:16;;;;;;;9.20;4.53;;;;;;;19.55;75.79;99721.53;5035740;28;20391;-83
2021/07/07 05:02:43;;;;;;;12.18;3.85;;;;;;;19.56;75.96;99727.66;5035851;28;20026;-83
2021/07/07 05:05:10;;;;;;;13.90;4.32;;;;;;;19.67;75.43;99732.56;5054169;28;20131;-83
2021/07/07 05:07:35;;;;;;;9.43;4.07;;;;;;;19.69;74.77;99732.38;5054855;28;20104;-83
2021/07/07 05:10:03;;;;;;;12.23;4.35;;;;;;;19.49;77.30;99738.22;5054608;28;20171;-83
2021/07/07 05:12:28;;;;;;;7.60;3.70;;;;;;;19.67;76.27;99737.91;5054516;28;20114;-82
2021/07/07 05:14:54;;;;;;;10.20;5.07;;;;;;;19.66;76.80;99738.06;5054923;28;20124;-83
2021/07/07 05:17:19;;;;;;;10.38;4.22;;;;;;;19.63;76.92;99739.28;5053854;28;20403;-83
2021/07/07 05:19:46;;;;;;;9.13;4.50;;;;;;;19.66;77.01;99738.91;5048431;28;20071;-83
2021/07/07 05:22:11;;;;;;;9.32;4.97;;;;;;;19.55;77.47;99736.66;5034363;28;20033;-83
2021/07/07 05:24:37;;;;;;;10.63;4.68;;;;;;;19.61;77.12;99742.09;5034476;28;20528;-83
2021/07/07 05:27:03;;;;;;;12.57;5.63;;;;;;;19.62;76.88;99749.06;5034678;28;20048;-83
2021/07/07 05:29:29;;;;;;;8.43;4.43;;;;;;;19.77;76.27;99743.84;5034715;28;20482;-83
2021/07/07 05:31:54;;;;;;;9.43;5.32;;;;;;;19.72;76.19;99754.19;5034112;28;20026;-83
2021/07/07 05:34:20;;;;;;;11.18;4.78;;;;;;;19.65;76.29;99747.91;5035656;28;20094;-82
2021/07/07 05:36:45;;;;;;;12.25;5.10;;;;;;;19.64;76.83;99756.88;5040131;28;20119;-82
2021/07/07 05:39:11;;;;;;;7.10;4.75;;;;;;;19.68;75.70;99752.84;5053823;28;20148;-83
2021/07/07 05:41:36;;;;;;;12.63;4.97;;;;;;;19.67;76.71;99756.56;5053909;28;20052;-83
2021/07/07 05:44:02;;;;;;;13.57;5.38;;;;;;;19.68;76.26;99758.19;5053326;28;20040;-83
2021/07/07 05:46:27;;;;;;;14.10;5.38;;;;;;;19.61;75.64;99759.94;5054346;28;20606;-82
2021/07/07 05:48:52;;;;;;;8.38;4.90;;;;;;;19.64;76.42;99770.22;5053832;28;20033;-83
2021/07/07 05:51:18;;;;;;;9.05;5.40;;;;;;;19.78;76.03;99774.78;5052160;28;20025;-83
2021/07/07 05:53:43;;;;;;;9.10;5.22;;;;;;;19.89;75.26;99770.88;5053130;28;20541;-83
2021/07/07 05:56:08;;;;;;;9.18;4.78;;;;;;;19.92;74.66;99775.81;5053647;28;20036;-83
2021/07/07 05:58:34;;;;;;;7.93;4.40;;;;;;;20.07;74.04;99777.72;5053704;28;20097;-83
2021/07/07 06:01:00;;;;;;;11.30;5.15;;;;;;;20.00;74.72;99777.59;5050556;28;20029;-83
2021/07/07 06:03:26;;;;;;;11.13;4.55;;;;;;;19.97;74.83;99781.44;5057510;28;20504;-83
2021/07/07 06:05:51;;;;;;;7.40;4.50;;;;;;;20.05;73.54;99777.06;5073332;28;20021;-82
2021/07/07 06:08:16;;;;;;;7.32;4.43;;;;;;;20.12;73.61;99784.16;5047691;28;20036;-83
2021/07/07 06:10:43;;;;;;;9.93;4.40;;;;;;;19.94;74.10;99783.63;5051836;28;20017;-83
2021/07/07 06:13:09;;;;;;;13.48;4.30;;;;;;;20.09;73.37;99786.34;5037171;28;20064;-83
2021/07/07 06:15:36;;;;;;;9.07;3.78;;;;;;;20.15;73.16;99785.63;5034919;28;20053;-82
2021/07/07 06:18:03;;;;;;;7.28;3.58;;;;;;;19.99;73.66;99786.59;5042617;28;20491;-82
2021/07/07 06:20:29;;;;;;;6.40;3.50;;;;;;;20.11;73.26;99789.66;5041579;28;20063;-82
2021/07/07 06:22:54;;;;;;;6.28;3.85;;;;;;;20.30;72.93;99788.28;5046911;28;20052;-83
2021/07/07 06:25:20;;;;;;;5.35;3.30;;;;;;;20.44;72.69;99794.63;5044458;28;20021;-82
2021/07/07 06:27:46;;;;;;;7.90;3.22;;;;;;;20.18;73.83;99799.41;5042525;28;20090;-82
2021/07/07 06:30:14;;;;;;;4.00;2.40;;;;;;;20.64;71.82;99794.97;5051699;28;20487;-83
2021/07/07 06:32:42;;;;;;;4.20;2.47;;;;;;;20.78;71.05;99810.94;5033079;28;20523;-82
2021/07/07 06:35:08;;;;;;;3.38;2.22;;;;;;;20.63;71.31;99804.78;5049752;28;20475;-82
2021/07/07 06:37:33;;;;;;;3.25;2.17;;;;;;;20.68;70.76;99809.59;5034490;28;20026;-82
2021/07/07 06:40:01;;;;;;;4.03;2.80;;;;;;;20.55;71.97;99812.84;5043004;28;21753;-85
2021/07/07 06:42:26;;;;;;;4.50;2.40;;;;;;;20.90;71.02;99816.66;5041355;28;20503;-84
2021/07/07 06:44:52;;;;;;;3.97;1.92;;;;;;;21.10;70.54;99819.56;5040960;28;20098;-86
2021/07/07 06:47:17;;;;;;;5.10;2.50;;;;;;;21.34;68.65;99817.56;5032519;28;20096;-82
2021/07/07 06:49:43;;;;;;;6.60;2.42;;;;;;;21.78;67.03;99820.13;5045846;28;20486;-82
2021/07/07 06:52:08;;;;;;;5.25;2.60;;;;;;;22.02;66.29;99825.22;5043753;28;20079;-82
2021/07/07 06:54:33;;;;;;;4.13;2.20;;;;;;;21.85;66.13;99825.50;5044337;28;20029;-82
2021/07/07 06:56:59;;;;;;;3.33;1.83;;;;;;;21.95;65.46;99830.53;5037753;28;20036;-81
2021/07/07 06:59:26;;;;;;;3.30;1.80;;;;;;;21.96;65.10;99826.84;5043659;28;20035;-81
2021/07/07 07:01:52;;;;;;;5.63;2.42;;;;;;;21.55;66.83;99838.16;5041269;28;20021;-81
2021/07/07 07:04:17;;;;;;;3.80;2.13;;;;;;;21.46;66.84;99832.09;5041455;28;20033;-81
2021/07/07 07:06:42;;;;;;;7.25;2.78;;;;;;;21.61;65.87;99839.25;5040476;28;20029;-81
2021/07/07 07:09:08;;;;;;;5.47;2.70;;;;;;;21.43;66.52;99839.66;5030578;28;20216;-86
2021/07/07 07:11:33;;;;;;;8.23;2.72;;;;;;;21.63;65.73;99848.72;5032740;28;20056;-81
2021/07/07 07:13:59;;;;;;;6.80;3.15;;;;;;;21.59;66.20;99844.78;5038639;28;20086;-81
2021/07/07 07:16:24;;;;;;;3.53;2.50;;;;;;;21.62;66.00;99849.72;5044833;28;20118;-81
2021/07/07 07:18:50;;;;;;;8.40;3.10;;;;;;;21.74;65.68;99856.25;5032435;28;20029;-81
2021/07/07 07:21:16;;;;;;;5.63;2.50;;;;;;;21.49;66.86;99857.63;5038671;28;20048;-81
2021/07/07 07:23:41;;;;;;;7.47;3.15;;;;;;;21.64;66.64;99861.06;5050635;28;20538;-81
2021/07/07 07:26:07;;;;;;;6.38;3.05;;;;;;;21.83;65.00;99864.13;5043853;28;20365;-81
2021/07/07 07:28:32;;;;;;;11.80;2.67;;;;;;;21.71;64.32;99861.16;5036086;28;20017;-82
2021/07/07 07:30:59;;;;;;;4.07;2.75;;;;;;;21.82;65.03;99862.47;5035145;28;20359;-82
2021/07/07 07:33:25;;;;;;;5.30;2.70;;;;;;;21.83;64.83;99864.13;5045938;28;20021;-79
2021/07/07 07:35:51;;;;;;;6.45;2.60;;;;;;;21.49;65.98;99862.97;5051916;28;20561;-80
2021/07/07 07:38:26;;;;;;;5.10;2.88;;;;;;;21.50;64.96;99859.25;5047725;28;20048;-79
2021/07/07 07:40:52;;;;;;;6.47;2.92;;;;;;;21.82;63.80;99874.00;5043789;28;20120;-79
2021/07/07 07:43:21;;;;;;;5.80;2.63;;;;;;;21.73;64.29;99880.47;5051343;28;20456;-79
2021/07/07 07:45:49;;;;;;;7.40;3.05;;;;;;;21.75;64.25;99876.59;5031465;28;20048;-79
2021/07/07 07:48:14;;;;;;;4.55;2.83;;;;;;;21.95;63.72;99873.28;5047558;28;20056;-79
2021/07/07 07:50:40;;;;;;;5.07;3.25;;;;;;;22.03;63.36;99885.69;5043795;28;20483;-79
2021/07/07 07:53:05;;;;;;;7.40;2.78;;;;;;;22.07;62.74;99886.97;5031526;28;20025;-82
2021/07/07 07:55:31;;;;;;;6.65;3.20;;;;;;;22.41;61.94;99885.44;5031711;28;20022;-82
2021/07/07 07:57:56;;;;;;;7.10;3.28;;;;;;;22.37;60.82;99896.53;5031433;28;20037;-82
2021/07/07 08:00:24;;;;;;;5.40;2.65;;;;;;;22.73;60.80;99892.88;5031922;28;20022;-82
2021/07/07 08:02:50;;;;;;;6.97;3.20;;;;;;;22.80;59.99;99892.91;5031795;28;20064;-82
2021/07/07 08:05:17;;;;;;;6.80;3.00;;;;;;;23.09;59.16;99891.84;5031376;28;20034;-82
2021/07/07 08:07:43;;;;;;;4.70;2.80;;;;;;;23.06;59.86;99899.47;5031265;28;20037;-82
2021/07/07 08:10:11;;;;;;;3.25;2.38;;;;;;;23.23;58.83;99903.47;5031735;28;20481;-82
2021/07/07 08:12:37;;;;;;;5.63;2.60;;;;;;;23.03;59.02;99906.03;5031356;28;20430;-79
2021/07/07 08:15:04;;;;;;;4.07;2.67;;;;;;;23.22;57.46;99901.78;5031551;28;20021;-82
2021/07/07 08:17:30;;;;;;;4.45;2.72;;;;;;;23.51;57.74;99906.03;5045576;28;20031;-81
2021/07/07 08:19:55;;;;;;;4.97;2.45;;;;;;;23.47;56.95;99903.97;5031891;28;20034;-82
2021/07/07 08:22:21;;;;;;;4.82;2.42;;;;;;;23.75;56.07;99907.34;5032604;28;20394;-81
2021/07/07 08:24:46;;;;;;;5.45;1.98;;;;;;;23.67;55.56;99904.03;5031520;28;20441;-82
2021/07/07 08:27:12;;;;;;;4.47;2.08;;;;;;;24.01;55.33;99900.41;5032240;28;20025;-82
2021/07/07 08:29:38;;;;;;;5.05;2.50;;;;;;;24.20;55.17;99914.06;5047653;28;20021;-82
2021/07/07 08:32:07;;;;;;;5.03;2.53;;;;;;;24.44;53.60;99915.28;5050284;28;20401;-82
2021/07/07 08:34:34;;;;;;;6.53;3.17;;;;;;;24.27;53.43;99912.19;5049885;28;20471;-82
2021/07/07 08:37:00;;;;;;;4.60;1.98;;;;;;;24.37;54.30;99928.72;5051283;28;20024;-82
2021/07/07 08:39:27;;;;;;;2.00;1.80;;;;;;;24.54;54.27;99927.28;5032557;28;20034;-82
2021/07/07 08:41:53;;;;;;;4.32;1.98;;;;;;;24.26;53.82;99929.31;5031675;28;20095;-82
2021/07/07 08:44:18;;;;;;;4.28;2.03;;;;;;;23.80;54.98;99935.44;5032407;28;20091;-82
2021/07/07 08:46:44;;;;;;;6.15;1.70;;;;;;;23.54;55.57;99932.44;5031264;28;20124;-82
2021/07/07 08:49:09;;;;;;;2.55;1.40;;;;;;;23.93;55.29;99936.31;5046136;28;20103;-82
2021/07/07 08:51:40;;;;;;;3.33;1.60;;;;;;;24.15;54.30;99939.63;5051222;28;20017;-82
2021/07/07 08:54:06;;;;;;;1.40;1.20;;;;;;;24.16;54.50;99924.34;5049102;28;20037;-82
2021/07/07 08:56:31;;;;;;;1.83;1.48;;;;;;;24.00;53.22;99946.22;5051211;28;20037;-79
2021/07/07 08:58:57;;;;;;;3.78;1.55;;;;;;;23.81;53.15;99929.03;5037628;28;20030;-82
2021/07/07 09:01:22;;;;;;;2.33;1.20;;;;;;;24.20;53.04;99932.81;5031243;28;20025;-82
2021/07/07 09:03:47;;;;;;;2.97;1.45;;;;;;;24.36;53.24;99940.47;5042084;28;20395;-82
2021/07/07 09:06:13;;;;;;;2.38;1.20;;;;;;;24.45;52.26;99938.41;5051074;28;20025;-82
2021/07/07 09:08:45;;;;;;;2.38;1.65;;;;;;;24.99;51.52;99939.22;5049299;28;20021;-82
2021/07/07 09:11:23;;;;;;;2.90;1.30;;;;;;;24.83;52.92;99935.13;5051080;28;20029;-82
2021/07/07 09:14:07;;;;;;;3.47;1.65;;;;;;;25.29;49.95;99951.13;5050559;28;20033;-82
2021/07/07 09:16:46;;;;;;;5.82;1.55;;;;;;;25.29;50.66;99953.81;5049897;28;20025;-82
2021/07/07 09:19:19;;;;;;;1.80;1.52;;;;;;;25.44;50.42;99947.38;5051591;28;20551;-82
2021/07/07 09:21:53;;;;;;;6.25;1.52;;;;;;;25.71;49.61;99948.91;5054207;28;20032;-82
2021/07/07 09:24:23;;;;;;;3.80;1.85;;;;;;;26.05;48.06;99946.06;5040819;28;20033;-82
2021/07/07 09:27:00;;;;;;;3.08;1.08;;;;;;;26.01;47.58;99952.91;5034518;28;20017;-80
2021/07/07 09:29:37;;;;;;;2.38;1.10;;;;;;;25.68;48.69;99948.50;5040847;28;20071;-79
2021/07/07 09:32:18;;;;;;;4.72;1.48;;;;;;;25.01;50.73;99953.25;5046759;28;20105;-79
2021/07/07 09:34:47;;;;;;;3.83;1.38;;;;;;;25.04;50.11;99944.75;5044930;28;20025;-80
2021/07/07 09:37:22;;;;;;;1.52;1.30;;;;;;;24.97;50.59;99949.34;5037826;28;20072;-80
2021/07/07 09:39:48;;;;;;;5.28;1.50;;;;;;;24.97;51.04;99952.03;5034103;28;20029;-80
2021/07/07 09:42:13;;;;;;;1.52;1.05;;;;;;;25.50;49.06;99951.91;5042196;28;20041;-79
2021/07/07 09:44:39;;;;;;;1.92;1.25;;;;;;;25.48;48.98;99953.97;5053473;28;20112;-80
2021/07/07 09:47:05;;;;;;;4.35;1.30;;;;;;;25.24;49.69;99953.63;5047147;28;20025;-80
2021/07/07 09:49:34;;;;;;;11.20;1.58;;;;;;;25.58;47.98;99948.97;5053634;28;20025;-80
2021/07/07 09:52:00;;;;;;;5.07;1.30;;;;;;;25.87;47.90;99954.78;5034310;28;20100;-79
2021/07/07 09:54:26;;;;;;;2.97;1.38;;;;;;;26.21;47.03;99964.34;5049649;28;20032;-79
2021/07/07 09:56:51;;;;;;;2.35;1.48;;;;;;;26.31;46.73;99964.69;5052486;28;20236;-81
2021/07/07 09:59:17;;;;;;;4.05;1.60;;;;;;;25.84;48.51;99957.94;5044367;28;20033;-82
2021/07/07 10:01:45;;;;;;;2.97;1.42;;;;;;;26.00;48.73;99968.19;5033742;28;20029;-82
2021/07/07 10:04:13;;;;;;;2.53;1.67;;;;;;;26.01;47.25;99961.78;5033737;28;20083;-82
2021/07/07 10:06:38;;;;;;;2.92;1.50;;;;;;;25.56;48.39;99972.53;5033671;28;20086;-79
2021/07/07 10:09:04;;;;;;;2.42;1.40;;;;;;;25.73;49.23;99972.88;5043607;28;20500;-80
2021/07/07 10:11:29;;;;;;;3.85;1.58;;;;;;;26.72;46.63;99976.00;5042481;28;20462;-79
2021/07/07 10:13:55;;;;;;;2.08;1.40;;;;;;;27.99;45.03;99985.41;5033467;28;20025;-80
2021/07/07 10:16:21;;;;;;;1.38;1.00;;;;;;;27.34;44.49;99986.78;5033608;28;20025;-80
2021/07/07 10:18:46;;;;;;;3.95;1.30;;;;;;;27.62;45.10;99986.25;5051141;28;20352;-80
2021/07/07 10:21:13;;;;;;;2.42;1.13;;;;;;;27.60;44.95;99988.34;5053191;28;20301;-80
2021/07/07 10:23:39;;;;;;;4.50;1.23;;;;;;;27.14;46.26;99989.69;5052828;28;20036;-80
2021/07/07 10:26:06;;;;;;;1.17;0.82;;;;;;;27.55;46.99;99993.63;5053301;28;20029;-80
2021/07/07 10:28:33;;;;;;;1.75;1.20;;;;;;;26.91;48.14;99991.13;5052268;28;20100;-80
2021/07/07 10:31:00;;;;;;;2.63;1.30;;;;;;;26.52;48.81;99992.25;5046409;28;20029;-80
2021/07/07 10:33:34;;;;;;;1.83;1.20;;;;;;;26.63;49.58;99988.09;5042419;28;20075;-81
2021/07/07 10:36:16;;;;;;;21.13;2.85;;;;;;;26.45;50.95;99995.03;5041275;28;20462;-81
2021/07/07 10:38:52;;;;;;;5.45;1.60;;;;;;;26.40;49.79;99994.03;5049014;28;20500;-80
2021/07/07 10:41:46;;;;;;;6.43;2.08;;;;;;;26.37;49.54;99994.47;5040198;28;20490;-80
2021/07/07 10:44:24;;;;;;;3.65;1.90;;;;;;;26.38;49.60;99991.53;5042071;28;20037;-80
2021/07/07 10:46:52;;;;;;;2.20;1.83;;;;;;;25.91;51.68;99996.41;5046719;28;20021;-80
2021/07/07 10:49:21;;;;;;;2.90;2.08;;;;;;;25.66;51.17;99993.59;5052756;28;20112;-80
2021/07/07 10:52:00;;;;;;;3.13;2.28;;;;;;;25.57;52.29;100006.44;5049968;28;20059;-80
2021/07/07 10:54:30;;;;;;;4.55;2.20;;;;;;;24.49;56.98;100015.63;5038716;28;20037;-80
2021/07/07 10:56:56;;;;;;;2.00;1.58;;;;;;;23.70;59.80;100043.00;5035856;28;20030;-80
2021/07/07 10:59:34;;;;;;;4.97;2.08;;;;;;;22.71;65.50;100044.78;5033319;28;20021;-80
2021/07/07 11:02:08;;;;;;;3.85;2.03;;;;;;;23.10;64.80;100048.00;5049898;28;20041;-80
2021/07/07 11:04:33;;;;;;;1.92;1.25;;;;;;;23.31;63.71;100052.47;5038831;28;20034;-80
2021/07/07 11:07:30;;;;;;;2.78;1.35;;;;;;;23.22;63.40;100059.00;5052247;28;20025;-80
2021/07/07 11:10:02;;;;;;;3.35;1.52;;;;;;;22.98;64.82;100058.38;5044301;28;20032;-80
2021/07/07 11:12:37;;;;;;;5.05;1.48;;;;;;;22.74;65.76;100065.78;5042283;28;20116;-80
2021/07/07 11:15:08;;;;;;;2.85;1.63;;;;;;;22.84;63.64;100067.31;5051986;28;20017;-80
2021/07/07 11:17:34;;;;;;;2.90;1.90;;;;;;;23.03;64.11;100068.56;5051045;28;20039;-80
2021/07/07 11:20:05;;;;;;;2.47;1.60;;;;;;;23.33;64.61;100075.34;5051009;28;20075;-80
2021/07/07 11:22:30;;;;;;;5.45;1.85;;;;;;;23.72;65.11;100071.25;5046701;28;20060;-80
2021/07/07 11:24:57;;;;;;;4.60;1.90;;;;;;;24.08;65.50;100061.34;5036632;28;20499;-80
2021/07/07 11:27:23;;;;;;;1.98;1.67;;;;;;;24.30;63.21;100076.25;5047298;28;20241;-80
2021/07/07 11:29:48;;;;;;;2.83;1.95;;;;;;;24.22;66.26;100072.94;5038065;28;20109;-80
2021/07/07 11:32:47;;;;;;;3.60;1.92;;;;;;;24.01;63.40;100081.94;5031734;28;20475;-80
2021/07/07 11:35:22;;;;;;;4.20;2.00;;;;;;;23.49;64.38;100086.78;5031658;28;20530;-80